Verden, Oklahoma
Current Conditions -  °F | °C
As of 5:55 AM on Friday 19 Dec 2014 (Local Time) from KCHK Reporting Station
Haze Haze  
Wind Chill: 33°   Ceiling: 300
Heat Index: 37°   Visibility: 1mi
Dew Point: 37°   Wind: 6mph
Humidity: 100%   Direction: 20°NNE
Pressure: 30.21"   Gusts: NA
Location:  35.08°N, 98.09°W
Report Text: KCHK 191155Z AUTO 02005KT 1SM BR OVC003 03/03 A3021 RMK AO2
Loading
Personal Weather Stations






























Interactive Weather Map New forecast layout! Learn more

10-Day Weather Forecast

Advertisements
Track Severe Weather on mobile